createdAt,value
2018-02-09T00:00:36.944Z,0
2018-02-09T00:01:36.930Z,0
2018-02-09T00:02:37.160Z,0
2018-02-09T00:03:36.884Z,0
2018-02-09T00:04:37.124Z,0
2018-02-09T00:05:36.838Z,0
2018-02-09T00:06:37.079Z,0
2018-02-09T00:07:37.060Z,0
2018-02-09T00:08:36.785Z,0
2018-02-09T00:09:36.759Z,0
2018-02-09T00:10:36.493Z,0
2018-02-09T00:11:36.739Z,0
2018-02-09T00:12:36.962Z,0
2018-02-09T00:13:36.939Z,0
2018-02-09T00:14:36.727Z,0
2018-02-09T00:15:36.647Z,0
2018-02-09T00:16:36.374Z,0
2018-02-09T00:17:36.877Z,0
2018-02-09T00:18:36.592Z,0
2018-02-09T00:19:36.576Z,0
2018-02-09T00:20:36.548Z,0
2018-02-09T00:21:36.793Z,0
2018-02-09T00:22:36.509Z,0
2018-02-09T00:23:36.748Z,0
2018-02-09T00:24:36.731Z,0
2018-02-09T00:25:36.452Z,0
2018-02-09T00:26:36.452Z,0
2018-02-09T00:27:36.952Z,0
2018-02-09T00:28:36.142Z,0
2018-02-09T00:29:36.632Z,0
2018-02-09T00:30:36.615Z,0
2018-02-09T00:31:36.347Z,0
2018-02-09T00:32:36.599Z,0
2018-02-09T00:33:36.553Z,0
2018-02-09T00:34:36.284Z,0
2018-02-09T00:35:36.263Z,0
2018-02-09T00:36:35.987Z,0
2018-02-09T00:37:35.974Z,0
2018-02-09T00:38:36.205Z,0
2018-02-09T00:39:36.220Z,0
2018-02-09T00:40:36.167Z,0
2018-02-09T00:41:35.898Z,0
2018-02-09T00:42:36.388Z,0
2018-02-09T00:43:36.377Z,0
2018-02-09T00:44:36.093Z,0
2018-02-09T00:45:36.080Z,0
2018-02-09T00:46:36.300Z,0
2018-02-09T00:47:36.289Z,0
2018-02-09T00:48:35.759Z,0
2018-02-09T00:49:36.247Z,0
2018-02-09T00:50:36.230Z,0
2018-02-09T00:51:36.203Z,0
2018-02-09T00:52:36.202Z,0
2018-02-09T00:53:36.174Z,0
2018-02-09T00:54:36.156Z,0
2018-02-09T00:55:35.875Z,0
2018-02-09T00:56:35.604Z,0
2018-02-09T00:57:35.840Z,0
2018-02-09T00:58:36.373Z,0
2018-02-09T00:59:36.066Z,0
2018-02-09T01:00:35.773Z,0
2018-02-09T01:01:36.014Z,0
2018-02-09T01:02:35.992Z,0
2018-02-09T01:03:35.976Z,0
2018-02-09T01:04:35.956Z,0
2018-02-09T01:05:35.700Z,0
2018-02-09T01:06:35.666Z,0
2018-02-09T01:07:35.917Z,0
2018-02-09T01:08:35.631Z,0
2018-02-09T01:09:35.873Z,0
2018-02-09T01:10:35.854Z,0
2018-02-09T01:11:35.567Z,0
2018-02-09T01:12:35.794Z,0
2018-02-09T01:13:35.786Z,0
2018-02-09T01:14:35.759Z,0
2018-02-09T01:15:35.748Z,0
2018-02-09T01:16:35.741Z,0
2018-02-09T01:17:35.453Z,0
2018-02-09T01:18:35.428Z,0
2018-02-09T01:19:35.736Z,0
2018-02-09T01:20:35.649Z,0
2018-02-09T01:21:35.636Z,0
2018-02-09T01:22:35.606Z,0
2018-02-09T01:23:35.582Z,0
2018-02-09T01:24:35.322Z,0
2018-02-09T01:25:35.294Z,0
2018-02-09T01:26:35.533Z,0
2018-02-09T01:27:35.506Z,0
2018-02-09T01:28:35.544Z,0
2018-02-09T01:29:35.524Z,0
2018-02-09T01:30:35.452Z,0
2018-02-09T01:31:35.435Z,0
2018-02-09T01:32:35.416Z,0
2018-02-09T01:33:35.391Z,0
2018-02-09T01:34:35.378Z,0
2018-02-09T01:35:35.109Z,0
2018-02-09T01:36:35.082Z,0
2018-02-09T01:37:35.063Z,0
2018-02-09T01:38:34.790Z,0
2018-02-09T01:39:35.279Z,0
2018-02-09T01:40:35.255Z,0
2018-02-09T01:41:35.234Z,0
2018-02-09T01:42:35.219Z,0
2018-02-09T01:43:35.200Z,0
2018-02-09T01:44:35.191Z,0
2018-02-09T01:45:35.157Z,0
2018-02-09T01:46:35.142Z,0
2018-02-09T01:47:35.124Z,0
2018-02-09T01:48:34.882Z,0
2018-02-09T01:49:34.581Z,0
2018-02-09T01:50:35.065Z,0
2018-02-09T01:51:35.043Z,0
2018-02-09T01:52:35.025Z,0
2018-02-09T01:53:34.757Z,0
2018-02-09T01:54:34.986Z,0
2018-02-09T01:55:34.719Z,0
2018-02-09T01:56:34.941Z,0
2018-02-09T01:57:34.927Z,0
2018-02-09T01:58:34.655Z,0
2018-02-09T01:59:34.884Z,0
2018-02-09T02:00:34.861Z,0
2018-02-09T02:01:34.342Z,0
2018-02-09T02:02:34.829Z,0
2018-02-09T02:03:34.808Z,0
2018-02-09T02:04:34.793Z,0
2018-02-09T02:05:34.519Z,0
2018-02-09T02:06:34.240Z,0
2018-02-09T02:07:34.735Z,0
2018-02-09T02:08:34.722Z,0
2018-02-09T02:09:34.694Z,0
2018-02-09T02:10:34.417Z,0
2018-02-09T02:11:34.650Z,0
2018-02-09T02:12:34.380Z,0
2018-02-09T02:13:34.354Z,0
2018-02-09T02:14:34.598Z,0
2018-02-09T02:15:34.579Z,0
2018-02-09T02:16:34.302Z,0
2018-02-09T02:17:34.279Z,0
2018-02-09T02:18:34.574Z,0
2018-02-09T02:19:34.499Z,0
2018-02-09T02:20:34.223Z,0
2018-02-09T02:21:34.467Z,0
2018-02-09T02:22:34.180Z,0
2018-02-09T02:23:34.414Z,0
2018-02-09T02:24:34.399Z,0
2018-02-09T02:25:34.123Z,0
2018-02-09T02:26:34.367Z,0
2018-02-09T02:27:34.087Z,0
2018-02-09T02:28:34.323Z,0
2018-02-09T02:29:34.317Z,0
2018-02-09T02:30:34.039Z,0
2018-02-09T02:31:34.266Z,0
2018-02-09T02:32:34.241Z,0
2018-02-09T02:33:34.249Z,0
2018-02-09T02:34:33.946Z,0
2018-02-09T02:35:34.186Z,0
2018-02-09T02:36:34.185Z,0
2018-02-09T02:37:33.902Z,0
2018-02-09T02:38:34.133Z,0
2018-02-09T02:39:34.112Z,0
2018-02-09T02:40:34.103Z,0
2018-02-09T02:41:33.813Z,0
2018-02-09T02:42:34.043Z,0
2018-02-09T02:43:34.034Z,0
2018-02-09T02:44:34.015Z,0
2018-02-09T02:45:33.735Z,0
2018-02-09T02:46:34.024Z,0
2018-02-09T02:47:33.706Z,0
2018-02-09T02:48:33.931Z,0
2018-02-09T02:49:33.917Z,0
2018-02-09T02:50:33.896Z,0
2018-02-09T02:51:33.876Z,0
2018-02-09T02:52:33.856Z,0
2018-02-09T02:53:33.835Z,0
2018-02-09T02:54:33.570Z,0
2018-02-09T02:55:33.799Z,0
2018-02-09T02:56:33.772Z,0
2018-02-09T02:57:33.752Z,0
2018-02-09T02:58:33.735Z,0
2018-02-09T02:59:33.720Z,0
2018-02-09T03:00:33.691Z,0
2018-02-09T03:01:33.688Z,0
2018-02-09T03:02:33.404Z,0
2018-02-09T03:03:33.946Z,0
2018-02-09T03:04:33.367Z,0
2018-02-09T03:05:33.656Z,0
2018-02-09T03:06:33.071Z,0
2018-02-09T03:07:33.302Z,0
2018-02-09T03:08:33.545Z,0
2018-02-09T03:09:33.521Z,0
2018-02-09T03:10:33.495Z,0
2018-02-09T03:11:33.234Z,0
2018-02-09T03:12:33.461Z,0
2018-02-09T03:13:33.443Z,0
2018-02-09T03:14:33.169Z,0
2018-02-09T03:15:33.401Z,0
2018-02-09T03:16:33.388Z,0
2018-02-09T03:17:33.105Z,0
2018-02-09T03:18:33.339Z,0
2018-02-09T03:19:33.070Z,0
2018-02-09T03:20:33.301Z,0
2018-02-09T03:21:33.035Z,0
2018-02-09T03:22:33.264Z,0
2018-02-09T03:23:32.990Z,0
2018-02-09T03:24:32.968Z,0
2018-02-09T03:25:32.958Z,0
2018-02-09T03:26:32.933Z,0
2018-02-09T03:27:32.912Z,0
2018-02-09T03:28:32.893Z,0
2018-02-09T03:29:32.876Z,0
2018-02-09T03:30:32.874Z,0
2018-02-09T03:31:33.088Z,0
2018-02-09T03:32:32.811Z,0
2018-02-09T03:33:32.539Z,0
2018-02-09T03:34:33.035Z,0
2018-02-09T03:35:32.750Z,0
2018-02-09T03:36:32.983Z,0
2018-02-09T03:37:32.964Z,0
2018-02-09T03:38:32.696Z,0
2018-02-09T03:39:32.932Z,0
2018-02-09T03:40:32.946Z,0
2018-02-09T03:41:32.637Z,0
2018-02-09T03:42:32.867Z,0
2018-02-09T03:43:32.846Z,0
2018-02-09T03:44:32.846Z,0
2018-02-09T03:45:32.554Z,0
2018-02-09T03:46:32.536Z,0
2018-02-09T03:47:32.517Z,0
2018-02-09T03:48:32.506Z,0
2018-02-09T03:49:32.481Z,0
2018-02-09T03:50:32.456Z,0
2018-02-09T03:51:32.756Z,0
2018-02-09T03:52:32.680Z,0
2018-02-09T03:53:32.405Z,0
2018-02-09T03:54:32.388Z,0
2018-02-09T03:55:32.367Z,0
2018-02-09T03:56:32.602Z,0
2018-02-09T03:57:32.324Z,0
2018-02-09T03:58:32.565Z,0
2018-02-09T03:59:32.279Z,0
2018-02-09T04:00:32.270Z,0
2018-02-09T04:01:32.241Z,0
2018-02-09T04:02:32.222Z,0
2018-02-09T04:03:32.204Z,0
2018-02-09T04:04:32.183Z,0
2018-02-09T04:05:32.668Z,0
2018-02-09T04:06:32.148Z,0
2018-02-09T04:07:31.869Z,0
2018-02-09T04:08:32.106Z,0
2018-02-09T04:09:32.087Z,0
2018-02-09T04:10:32.325Z,0
2018-02-09T04:11:46.710Z,0
2018-02-09T04:12:32.029Z,0
2018-02-09T04:13:32.258Z,0
2018-02-09T04:14:31.733Z,0
2018-02-09T04:15:31.714Z,0
2018-02-09T04:16:31.946Z,0
2018-02-09T04:17:32.189Z,0
2018-02-09T04:18:31.905Z,0
2018-02-09T04:19:31.648Z,0
2018-02-09T04:20:31.869Z,0
2018-02-09T04:21:31.595Z,0
2018-02-09T04:22:31.832Z,0
2018-02-09T04:23:32.066Z,0
2018-02-09T04:24:31.536Z,0
2018-02-09T04:25:32.026Z,0
2018-02-09T04:26:32.002Z,0
2018-02-09T04:27:31.986Z,0
2018-02-09T04:28:31.965Z,0
2018-02-09T04:29:31.948Z,0
2018-02-09T04:30:31.930Z,0
2018-02-09T04:31:31.404Z,0
2018-02-09T04:32:31.640Z,0
2018-02-09T04:33:31.616Z,0
2018-02-09T04:34:31.608Z,0
2018-02-09T04:35:31.327Z,0
2018-02-09T04:36:31.819Z,0
2018-02-09T04:37:31.538Z,0
2018-02-09T04:38:31.773Z,0
2018-02-09T04:39:31.497Z,0
2018-02-09T04:40:31.743Z,0
2018-02-09T04:41:31.715Z,0
2018-02-09T04:42:31.705Z,0
2018-02-09T04:43:31.680Z,0
2018-02-09T04:44:31.662Z,0
2018-02-09T04:45:31.133Z,0
2018-02-09T04:46:30.861Z,0
2018-02-09T04:47:31.607Z,0
2018-02-09T04:48:31.077Z,0
2018-02-09T04:49:31.319Z,0
2018-02-09T04:50:31.561Z,0
2018-02-09T04:51:31.267Z,0
2018-02-09T04:52:31.262Z,0
2018-02-09T04:53:31.235Z,0
2018-02-09T04:54:31.471Z,0
2018-02-09T04:55:31.196Z,0
2018-02-09T04:56:31.431Z,0
2018-02-09T04:57:30.653Z,0
2018-02-09T04:58:31.141Z,0
2018-02-09T04:59:31.384Z,0
2018-02-09T05:00:31.352Z,0
2018-02-09T05:01:30.829Z,0
2018-02-09T05:02:31.065Z,0
2018-02-09T05:03:31.299Z,0
2018-02-09T05:04:31.324Z,0
2018-02-09T05:05:30.752Z,0
2018-02-09T05:06:30.988Z,0
2018-02-09T05:07:31.474Z,0
2018-02-09T05:08:30.702Z,0
2018-02-09T05:09:31.185Z,0
2018-02-09T05:10:31.174Z,0
2018-02-09T05:11:31.151Z,0
2018-02-09T05:12:30.881Z,0
2018-02-09T05:13:31.123Z,0
2018-02-09T05:14:31.106Z,0
2018-02-09T05:15:30.826Z,0
2018-02-09T05:16:30.807Z,0
2018-02-09T05:17:30.791Z,0
2018-02-09T05:18:30.768Z,0
2018-02-09T05:19:30.757Z,0
2018-02-09T05:20:31.016Z,0
2018-02-09T05:21:30.726Z,0
2018-02-09T05:22:30.700Z,0
2018-02-09T05:23:30.930Z,0
2018-02-09T05:24:30.668Z,0
2018-02-09T05:25:30.646Z,0
2018-02-09T05:26:30.882Z,0
2018-02-09T05:27:30.610Z,0
2018-02-09T05:28:30.889Z,0
2018-02-09T05:29:30.316Z,0
2018-02-09T05:30:30.803Z,0
2018-02-09T05:31:30.538Z,0
2018-02-09T05:32:30.772Z,0
2018-02-09T05:33:30.504Z,0
2018-02-09T05:34:30.482Z,0
2018-02-09T05:35:30.721Z,0
2018-02-09T05:36:30.446Z,0
2018-02-09T05:37:30.432Z,0
2018-02-09T05:38:30.676Z,0
2018-02-09T05:39:30.393Z,0
2018-02-09T05:40:30.376Z,0
2018-02-09T05:41:30.360Z,0
2018-02-09T05:42:30.593Z,0
2018-02-09T05:43:30.326Z,0
2018-02-09T05:44:30.052Z,0
2018-02-09T05:45:30.034Z,0
2018-02-09T05:46:30.336Z,0
2018-02-09T05:47:30.254Z,0
2018-02-09T05:48:30.491Z,0
2018-02-09T05:49:29.995Z,0
2018-02-09T05:50:30.203Z,0
2018-02-09T05:51:30.184Z,0
2018-02-09T05:52:30.421Z,0
2018-02-09T05:53:30.150Z,0
2018-02-09T05:54:30.130Z,0
2018-02-09T05:55:30.370Z,0
2018-02-09T05:56:30.348Z,0
2018-02-09T05:57:30.335Z,0
2018-02-09T05:58:30.309Z,0
2018-02-09T05:59:30.297Z,0
2018-02-09T06:00:30.308Z,0
2018-02-09T06:01:30.011Z,4
2018-02-09T06:02:30.246Z,4
2018-02-09T06:03:29.971Z,0
2018-02-09T06:04:29.957Z,4
2018-02-09T06:05:30.199Z,4
2018-02-09T06:06:30.180Z,4
2018-02-09T06:07:29.653Z,4
2018-02-09T06:08:29.673Z,4
2018-02-09T06:09:29.623Z,4
2018-02-09T06:10:30.363Z,8
2018-02-09T06:11:30.090Z,12
2018-02-09T06:12:29.832Z,8
2018-02-09T06:13:29.809Z,12
2018-02-09T06:14:29.787Z,16
2018-02-09T06:15:29.518Z,20
2018-02-09T06:16:30.010Z,20
2018-02-09T06:17:29.737Z,24
2018-02-09T06:18:29.732Z,28
2018-02-09T06:19:29.710Z,32
2018-02-09T06:20:29.686Z,36
2018-02-09T06:21:29.413Z,44
2018-02-09T06:22:29.901Z,48
2018-02-09T06:23:29.889Z,56
2018-02-09T06:24:29.871Z,64
2018-02-09T06:25:29.861Z,72
2018-02-09T06:26:29.830Z,76
2018-02-09T06:27:29.821Z,88
2018-02-09T06:28:29.304Z,92
2018-02-09T06:29:29.528Z,104
2018-02-09T06:30:29.513Z,108
2018-02-09T06:31:29.754Z,124
2018-02-09T06:32:29.478Z,132
2018-02-09T06:33:29.207Z,148
2018-02-09T06:34:29.448Z,168
2018-02-09T06:35:29.688Z,184
2018-02-09T06:36:29.407Z,196
2018-02-09T06:37:29.647Z,204
2018-02-09T06:38:29.628Z,216
2018-02-09T06:39:29.614Z,228
2018-02-09T06:40:29.594Z,248
2018-02-09T06:41:29.830Z,264
2018-02-09T06:42:29.316Z,280
2018-02-09T06:43:29.547Z,292
2018-02-09T06:44:29.282Z,308
2018-02-09T06:45:29.513Z,328
2018-02-09T06:46:29.501Z,344
2018-02-09T06:47:29.551Z,368
2018-02-09T06:48:29.213Z,392
2018-02-09T06:49:29.187Z,404
2018-02-09T06:50:29.426Z,420
2018-02-09T06:51:28.906Z,432
2018-02-09T06:52:29.197Z,448
2018-02-09T06:53:29.143Z,464
2018-02-09T06:54:29.390Z,476
2018-02-09T06:55:29.089Z,488
2018-02-09T06:56:29.073Z,508
2018-02-09T06:57:29.312Z,520
2018-02-09T06:58:29.036Z,540
2018-02-09T06:59:28.766Z,568
2018-02-09T07:00:29.254Z,596
2018-02-09T07:01:29.243Z,632
2018-02-09T07:03:29.206Z,712
2018-02-09T07:05:28.920Z,820
2018-02-09T07:06:28.946Z,848
2018-02-09T07:07:29.138Z,868
2018-02-09T07:08:28.870Z,884
2018-02-09T07:09:29.105Z,908
2018-02-09T07:10:28.842Z,932
2018-02-09T07:11:43.730Z,948
2018-02-09T07:12:28.806Z,960
2018-02-09T07:13:29.038Z,988
2018-02-09T07:14:28.766Z,1032
2018-02-09T07:15:28.806Z,1076
2018-02-09T07:16:28.987Z,1116
2018-02-09T07:17:28.466Z,1144
2018-02-09T07:18:28.981Z,1192
2018-02-09T07:19:28.940Z,1276
2018-02-09T07:20:28.414Z,1352
2018-02-09T07:21:28.653Z,1428
2018-02-09T07:22:28.644Z,1472
2018-02-09T07:23:28.615Z,1528
2018-02-09T07:24:28.595Z,1564
2018-02-09T07:25:28.584Z,1580
2018-02-09T07:26:28.570Z,1612
2018-02-09T07:27:28.550Z,1680
2018-02-09T07:28:28.531Z,1740
2018-02-09T07:29:28.779Z,1800
2018-02-09T07:30:28.506Z,1828
2018-02-09T07:31:28.234Z,1896
2018-02-09T07:32:28.468Z,1988
2018-02-09T07:33:28.524Z,2048
2018-02-09T07:34:28.462Z,2060
2018-02-09T07:35:28.442Z,2040
2018-02-09T07:36:28.402Z,2044
2018-02-09T07:37:28.642Z,2084
2018-02-09T07:39:28.355Z,2232
2018-02-09T07:40:28.590Z,2276
2018-02-09T07:41:28.329Z,2340
2018-02-09T07:42:28.316Z,2376
2018-02-09T07:43:28.288Z,2416
2018-02-09T07:44:28.526Z,2428
2018-02-09T07:45:28.565Z,2420
2018-02-09T07:46:28.255Z,2472
2018-02-09T07:47:28.231Z,2584
2018-02-09T07:48:28.214Z,2636
2018-02-09T07:49:28.199Z,2700
2018-02-09T07:50:28.184Z,2752
2018-02-09T07:51:28.418Z,2736
2018-02-09T07:52:27.891Z,2784
2018-02-09T07:53:28.175Z,2900
2018-02-09T07:54:28.112Z,3000
2018-02-09T07:55:28.347Z,3124
2018-02-09T07:56:28.082Z,3228
2018-02-09T07:57:28.070Z,3300
2018-02-09T07:58:28.063Z,3420
2018-02-09T07:59:28.038Z,3536
2018-02-09T08:00:27.767Z,3640
2018-02-09T08:01:28.253Z,3700
2018-02-09T08:02:27.735Z,3812
2018-02-09T08:03:27.752Z,4000
2018-02-09T08:04:27.702Z,4124
2018-02-09T08:05:27.941Z,4120
2018-02-09T08:06:28.177Z,4232
2018-02-09T08:07:27.663Z,4356
2018-02-09T08:08:27.893Z,4392
2018-02-09T08:09:28.134Z,4388
2018-02-09T08:10:28.118Z,4464
2018-02-09T08:11:28.105Z,4424
2018-02-09T08:12:27.847Z,4524
2018-02-09T08:13:27.316Z,4820
2018-02-09T08:14:28.052Z,5140
2018-02-09T08:15:27.831Z,5076
2018-02-09T08:16:27.519Z,4916
2018-02-09T08:17:28.014Z,4892
2018-02-09T08:18:27.761Z,5168
2018-02-09T08:19:27.727Z,5724
2018-02-09T08:20:27.970Z,5860
2018-02-09T08:21:27.695Z,5944
2018-02-09T08:22:27.682Z,6268
2018-02-09T08:23:27.942Z,6616
2018-02-09T08:24:27.747Z,6604
2018-02-09T08:25:27.639Z,6600
2018-02-09T08:26:27.616Z,6568
2018-02-09T08:27:27.606Z,6568
2018-02-09T08:28:27.629Z,6872
2018-02-09T08:29:27.574Z,7016
2018-02-09T08:30:27.563Z,6904
2018-02-09T08:31:27.295Z,6868
2018-02-09T08:32:27.279Z,7172
2018-02-09T08:33:27.530Z,7456
2018-02-09T08:34:27.502Z,7416
2018-02-09T08:35:27.238Z,7416
2018-02-09T08:36:27.728Z,7516
2018-02-09T08:37:27.725Z,7384
2018-02-09T08:38:27.442Z,7308
2018-02-09T08:39:27.676Z,7360
2018-02-09T08:40:27.169Z,7456
2018-02-09T08:41:27.661Z,7512
2018-02-09T08:42:27.660Z,7516
2018-02-09T08:43:27.372Z,7496
2018-02-09T08:44:26.852Z,7484
2018-02-09T08:45:27.088Z,7452
2018-02-09T08:46:27.583Z,7536
2018-02-09T08:47:27.334Z,7604
2018-02-09T08:48:27.313Z,7636
2018-02-09T08:49:27.552Z,7680
2018-02-09T08:50:27.531Z,7680
2018-02-09T08:51:27.524Z,7532
2018-02-09T08:52:27.244Z,7584
2018-02-09T08:53:27.492Z,7576
2018-02-09T08:54:27.213Z,7588
2018-02-09T08:55:27.448Z,7624
2018-02-09T08:56:26.932Z,7732
2018-02-09T08:57:27.413Z,7716
2018-02-09T08:58:27.168Z,7756
2018-02-09T08:59:27.178Z,7764
2018-02-09T09:00:27.384Z,7860
2018-02-09T09:01:27.152Z,7964
2018-02-09T09:02:27.346Z,8100
2018-02-09T09:03:26.822Z,8132
2018-02-09T09:04:27.069Z,8048
2018-02-09T09:05:27.305Z,7832
2018-02-09T09:06:27.080Z,7656
2018-02-09T09:07:26.823Z,7640
2018-02-09T09:08:27.256Z,7620
2018-02-09T09:09:26.738Z,7536
2018-02-09T09:10:27.252Z,7468
2018-02-09T09:11:27.212Z,7432
2018-02-09T09:12:26.942Z,7444
2018-02-09T09:13:26.949Z,7488
2018-02-09T09:14:26.933Z,7496
2018-02-09T09:15:26.400Z,7524
2018-02-09T09:16:27.141Z,7608
2018-02-09T09:17:27.130Z,7552
2018-02-09T09:18:26.861Z,7456
2018-02-09T09:19:27.157Z,7384
2018-02-09T09:20:27.083Z,7336
2018-02-09T09:21:27.111Z,7336
2018-02-09T09:22:26.548Z,7288
2018-02-09T09:23:26.793Z,7284
2018-02-09T09:24:26.791Z,7296
2018-02-09T09:25:26.516Z,7280
2018-02-09T09:26:26.996Z,7260
2018-02-09T09:27:26.998Z,7236
2018-02-09T09:28:26.990Z,7212
2018-02-09T09:29:26.483Z,7148
2018-02-09T09:30:26.686Z,7044
2018-02-09T09:31:26.672Z,6952
2018-02-09T09:32:26.681Z,6884
2018-02-09T09:33:26.638Z,6896
2018-02-09T09:34:26.745Z,6868
2018-02-09T09:35:26.862Z,6828
2018-02-09T09:36:26.860Z,6784
2018-02-09T09:37:26.579Z,6800
2018-02-09T09:38:26.578Z,6764
2018-02-09T09:39:26.613Z,6744
2018-02-09T09:40:26.541Z,6752
2018-02-09T09:41:26.521Z,6740
2018-02-09T09:42:26.770Z,6704
2018-02-09T09:43:26.237Z,6700
2018-02-09T09:44:26.232Z,6668
2018-02-09T09:45:26.475Z,6652
2018-02-09T09:46:26.764Z,6616
2018-02-09T09:47:26.450Z,6632
2018-02-09T09:48:26.676Z,6652
2018-02-09T09:49:26.411Z,6652
2018-02-09T09:50:26.709Z,6680
2018-02-09T09:52:26.616Z,6712
2018-02-09T09:53:26.610Z,6692
2018-02-09T09:54:26.584Z,6752
2018-02-09T09:55:26.585Z,6816
2018-02-09T09:56:26.317Z,6832
2018-02-09T09:57:26.553Z,6860
2018-02-09T09:58:41.195Z,6852
2018-02-09T09:59:26.261Z,6848
2018-02-09T10:00:26.500Z,6824
2018-02-09T10:01:26.240Z,6760
2018-02-09T10:02:25.708Z,6768
2018-02-09T10:03:25.952Z,6812
2018-02-09T10:04:26.699Z,6808
2018-02-09T10:05:26.168Z,6824
2018-02-09T10:06:26.414Z,6848
2018-02-09T10:07:26.444Z,6916
2018-02-09T10:08:26.591Z,6912
2018-02-09T10:09:26.366Z,6856
2018-02-09T10:10:26.093Z,6816
2018-02-09T10:11:26.337Z,6808
2018-02-09T10:12:26.080Z,6840
2018-02-09T10:13:26.104Z,6896
2018-02-09T10:14:26.291Z,6908
2018-02-09T10:15:25.773Z,6804
2018-02-09T10:16:26.019Z,6736
2018-02-09T10:17:26.248Z,6700
2018-02-09T10:18:26.252Z,6688
2018-02-09T10:19:26.215Z,6652
2018-02-09T10:20:26.431Z,6680
2018-02-09T10:21:25.934Z,6608
2018-02-09T10:22:26.242Z,6580
2018-02-09T10:23:25.912Z,6528
2018-02-09T10:24:26.148Z,6568
2018-02-09T10:25:25.638Z,6524
2018-02-09T10:26:25.861Z,6564
2018-02-09T10:27:26.105Z,6580
2018-02-09T10:29:25.828Z,6564
2018-02-09T10:30:26.054Z,6588
2018-02-09T10:31:25.793Z,6552
2018-02-09T10:32:25.778Z,6556
2018-02-09T10:33:26.013Z,6608
2018-02-09T10:34:26.002Z,6588
2018-02-09T10:35:26.211Z,6516
2018-02-09T10:36:25.727Z,6504
2018-02-09T10:37:25.971Z,6536
2018-02-09T10:38:25.687Z,6568
2018-02-09T10:39:25.931Z,6620
2018-02-09T10:40:25.660Z,6796
2018-02-09T10:41:25.644Z,7064
2018-02-09T10:42:25.888Z,7552
2018-02-09T10:43:25.384Z,8124
2018-02-09T10:44:25.866Z,8632
2018-02-09T10:45:25.599Z,9164
2018-02-09T10:46:25.834Z,9840
2018-02-09T10:47:25.817Z,10356
2018-02-09T10:48:25.560Z,10916
2018-02-09T10:49:25.542Z,11224
2018-02-09T10:50:25.774Z,11228
2018-02-09T10:51:25.820Z,11224
2018-02-09T10:52:25.235Z,11084
2018-02-09T10:53:25.727Z,11184
2018-02-09T10:54:25.726Z,11008
2018-02-09T10:55:25.729Z,10736
2018-02-09T10:56:25.437Z,10712
2018-02-09T10:57:25.680Z,10452
2018-02-09T10:58:25.466Z,10304
2018-02-09T10:59:25.648Z,10212
2018-02-09T11:00:40.297Z,10332
2018-02-09T11:01:25.674Z,10500
2018-02-09T11:02:25.110Z,10720
2018-02-09T11:03:25.605Z,10844
2018-02-09T11:04:25.604Z,10784
2018-02-09T11:05:25.984Z,10580
2018-02-09T11:06:25.331Z,10460
2018-02-09T11:07:25.297Z,10512
2018-02-09T11:08:25.562Z,10588
2018-02-09T11:09:25.541Z,10584
2018-02-09T11:10:25.005Z,10392
2018-02-09T11:11:25.490Z,10480
2018-02-09T11:12:25.486Z,10760
2018-02-09T11:13:25.235Z,10980
2018-02-09T11:14:25.487Z,10728
2018-02-09T11:15:24.939Z,10560
2018-02-09T11:16:25.179Z,10468
2018-02-09T11:17:25.229Z,10336
2018-02-09T11:18:25.162Z,10380
2018-02-09T11:19:25.161Z,10828
2018-02-09T11:20:24.886Z,11032
2018-02-09T11:21:25.122Z,10964
2018-02-09T11:22:25.108Z,10908
2018-02-09T11:23:25.402Z,10696
2018-02-09T11:24:25.346Z,10588
2018-02-09T11:25:25.075Z,10768
2018-02-09T11:26:25.325Z,11092
2018-02-09T11:27:24.807Z,10772
2018-02-09T11:28:25.306Z,10384
2018-02-09T11:29:24.778Z,10024
2018-02-09T11:30:25.028Z,9908
2018-02-09T11:31:25.265Z,9880
2018-02-09T11:32:25.252Z,9532
2018-02-09T11:33:24.994Z,9184
2018-02-09T11:34:24.980Z,9076
2018-02-09T11:35:24.966Z,9072
2018-02-09T11:36:25.259Z,9244
2018-02-09T11:37:25.198Z,9116
2018-02-09T11:38:25.191Z,8988
2018-02-09T11:39:25.185Z,8860
2018-02-09T11:40:24.907Z,8564
2018-02-09T11:41:24.902Z,8704
2018-02-09T11:42:24.892Z,9044
2018-02-09T11:43:24.876Z,9488
2018-02-09T11:44:24.885Z,9904
2018-02-09T11:45:25.108Z,10188
2018-02-09T11:46:25.095Z,9964
2018-02-09T11:47:24.831Z,9216
2018-02-09T11:48:24.814Z,8368
2018-02-09T11:49:24.807Z,7880
2018-02-09T11:50:24.564Z,7788
2018-02-09T11:51:25.045Z,7620
2018-02-09T11:52:25.042Z,7240
2018-02-09T11:53:25.026Z,7060
2018-02-09T11:54:25.001Z,7152
2018-02-09T11:55:25.119Z,7560
2018-02-09T11:56:24.994Z,7984
2018-02-09T11:57:24.987Z,8024
2018-02-09T11:58:24.962Z,7960
2018-02-09T11:59:24.957Z,7796
2018-02-09T12:00:24.937Z,7528
2018-02-09T12:01:24.925Z,7200
2018-02-09T12:02:24.665Z,7188
2018-02-09T12:03:24.923Z,7352
2018-02-09T12:04:24.893Z,7540
2018-02-09T12:05:24.882Z,7724
2018-02-09T12:06:24.637Z,7936
2018-02-09T12:07:24.654Z,7636
2018-02-09T12:08:24.620Z,7312
2018-02-09T12:09:24.868Z,7188
2018-02-09T12:10:24.826Z,7056
2018-02-09T12:11:24.556Z,7112
2018-02-09T12:12:24.814Z,7412
2018-02-09T12:13:24.548Z,7496
2018-02-09T12:14:24.522Z,7516
2018-02-09T12:15:24.511Z,7532
2018-02-09T12:16:24.761Z,7528
2018-02-09T12:17:24.742Z,7620
2018-02-09T12:18:24.730Z,7788
2018-02-09T12:19:24.710Z,7760
2018-02-09T12:20:24.705Z,7548
2018-02-09T12:21:24.433Z,7132
2018-02-09T12:22:24.683Z,6764
2018-02-09T12:23:24.670Z,6536
2018-02-09T12:24:24.401Z,6280
2018-02-09T12:25:24.391Z,6180
2018-02-09T12:26:53.962Z,6284
2018-02-09T12:27:24.111Z,6328
2018-02-09T12:28:24.670Z,6432
2018-02-09T12:29:24.390Z,6596
2018-02-09T12:30:24.333Z,7040
2018-02-09T12:31:24.569Z,7372
2018-02-09T12:32:24.585Z,7556
2018-02-09T12:33:24.547Z,7116
2018-02-09T12:34:24.537Z,6724
2018-02-09T12:35:24.270Z,6672
2018-02-09T12:36:24.280Z,7024
2018-02-09T12:38:24.494Z,7212
2018-02-09T12:39:24.489Z,7460
2018-02-09T12:40:24.466Z,7960
2018-02-09T12:41:24.197Z,8016
2018-02-09T12:42:24.440Z,7216
2018-02-09T12:43:39.123Z,6580
2018-02-09T12:44:24.182Z,6104
2018-02-09T12:45:24.410Z,5656
2018-02-09T12:46:24.137Z,5644
2018-02-09T12:47:24.127Z,6180
2018-02-09T12:48:24.121Z,6388
2018-02-09T12:49:24.361Z,6080
2018-02-09T12:50:24.349Z,5724
2018-02-09T12:51:24.079Z,5520
2018-02-09T12:52:24.370Z,5492
2018-02-09T12:53:24.054Z,5540
2018-02-09T12:54:24.299Z,5616
2018-02-09T12:55:24.294Z,5760
2018-02-09T12:56:24.283Z,5868
2018-02-09T12:57:24.010Z,5908
2018-02-09T12:58:24.252Z,5848
2018-02-09T12:59:24.254Z,5800
2018-02-09T13:00:24.223Z,5820
2018-02-09T13:01:24.207Z,5736
2018-02-09T13:02:24.198Z,5668
2018-02-09T13:03:24.216Z,5788
2018-02-09T13:04:24.173Z,5772
2018-02-09T13:05:24.167Z,5496
2018-02-09T13:06:23.901Z,5208
2018-02-09T13:07:24.139Z,5032
2018-02-09T13:08:24.375Z,4944
2018-02-09T13:09:23.887Z,4868
2018-02-09T13:10:24.102Z,4820
2018-02-09T13:11:23.830Z,4788
2018-02-09T13:12:24.072Z,4768
2018-02-09T13:13:23.802Z,4744
2018-02-09T13:14:24.045Z,4708
2018-02-09T13:15:23.780Z,4668
2018-02-09T13:16:24.029Z,4632
2018-02-09T13:17:24.057Z,4612
2018-02-09T13:18:23.752Z,4600
2018-02-09T13:19:23.725Z,4588
2018-02-09T13:20:23.983Z,4572
2018-02-09T13:21:23.713Z,4540
2018-02-09T13:22:23.691Z,4508
2018-02-09T13:23:23.935Z,4484
2018-02-09T13:24:23.927Z,4468
2018-02-09T13:25:23.909Z,4456
2018-02-09T13:26:23.908Z,4452
2018-02-09T13:27:23.896Z,4460
2018-02-09T13:28:38.533Z,4468
2018-02-09T13:29:23.598Z,4468
2018-02-09T13:30:23.835Z,4452
2018-02-09T13:31:38.234Z,4436
2018-02-09T13:32:23.598Z,4436
2018-02-09T13:33:23.800Z,4436
2018-02-09T13:34:23.790Z,4432
2018-02-09T13:35:23.769Z,4428
2018-02-09T13:36:23.758Z,4428
2018-02-09T13:37:23.488Z,4412
2018-02-09T13:38:23.732Z,4400
2018-02-09T13:39:23.726Z,4408
2018-02-09T13:40:23.714Z,4432
2018-02-09T13:41:23.692Z,4432
2018-02-09T13:42:23.700Z,4448
2018-02-09T13:43:23.692Z,4464
2018-02-09T13:44:23.646Z,4464
2018-02-09T13:45:23.649Z,4432
2018-02-09T13:46:23.670Z,4380
2018-02-09T13:47:23.638Z,4352
2018-02-09T13:48:23.603Z,4328
2018-02-09T13:49:23.591Z,4292
2018-02-09T13:50:23.610Z,4256
2018-02-09T13:51:23.559Z,4236
2018-02-09T13:52:23.792Z,4216
2018-02-09T13:53:23.526Z,4180
2018-02-09T13:54:23.267Z,4148
2018-02-09T13:55:23.252Z,4112
2018-02-09T13:56:23.275Z,4076
2018-02-09T13:58:22.951Z,4044
2018-02-09T13:59:23.445Z,4028
2018-02-09T14:00:23.432Z,4008
2018-02-09T14:01:23.193Z,3992
2018-02-09T14:02:23.410Z,3980
2018-02-09T14:03:22.899Z,3968